| time (UTC) | temp C | wind direction | speed KPH | gust KPH | rain 1hr cm | rain 24hr cm | rain mn cm | humidity % | barometer mb |
| 20260510022530 | 26 | 152 | 9.7 | 12.9 | 0.00 | 0.10 | 0.10 | 55 | 1010.7 |
| 20260510021525 | 26 | 137 | 8.0 | 11.3 | 0.00 | 0.10 | 0.10 | 54 | 1010.7 |
| 20260510020527 | 26 | 146 | 8.0 | 11.3 | 0.00 | 0.10 | 0.10 | 53 | 1010.6 |
| 20260510015528 | 26 | 149 | 8.0 | 11.3 | 0.00 | 0.10 | 0.10 | 51 | 1010.4 |
| 20260510014524 | 26 | 140 | 9.7 | 11.3 | 0.00 | 0.10 | 0.10 | 50 | 1010.3 |
| 20260510013520 | 27 | 146 | 8.0 | 11.3 | 0.00 | 0.10 | 0.10 | 50 | 1010.1 |
| 20260510012521 | 27 | 127 | 9.7 | 12.9 | 0.00 | 0.10 | 0.10 | 51 | 1010.1 |
| 20260510011552 | 27 | 141 | 8.0 | 11.3 | 0.00 | 0.10 | 0.10 | 51 | 1010.0 |
| 20260510010522 | 28 | 130 | 8.0 | 9.7 | 0.00 | 0.10 | 0.10 | 49 | 1009.9 |
| 20260510005518 | 28 | 121 | 8.0 | 9.7 | 0.00 | 0.10 | 0.10 | 47 | 1009.8 |
| 20260510004518 | 29 | 133 | 6.4 | 8.0 | 0.00 | 0.10 | 0.10 | 48 | 1009.7 |
| 20260510003604 | 30 | 118 | 8.0 | 9.7 | 0.00 | 0.10 | 0.10 | 46 | 1009.5 |
| 20260510002521 | 30 | 126 | 8.0 | 12.9 | 0.00 | 0.10 | 0.10 | 45 | 1009.4 |
| 20260510001533 | 30 | 109 | 8.0 | 11.3 | 0.00 | 0.10 | 0.10 | 45 | 1009.3 |
| 20260510000518 | 31 | 119 | 9.7 | 12.9 | 0.00 | 0.10 | 0.10 | 45 | 1009.3 |
| 20260509235520 | 31 | 115 | 9.7 | 11.3 | 0.00 | 0.10 | 0.10 | 45 | 1009.3 |
| 20260509234522 | 31 | 122 | 8.0 | 11.3 | 0.00 | 0.10 | 0.10 | 45 | 1009.2 |
| 20260509233524 | 31 | 118 | 6.4 | 9.7 | 0.00 | 0.10 | 0.10 | 45 | 1009.0 |
| 20260509232524 | 31 | 290 | 3.2 | 4.8 | 0.00 | 0.10 | 0.10 | 41 | 1009.0 |
| 20260509231545 | 32 | 295 | 6.4 | 8.0 | 0.00 | 0.10 | 0.10 | 41 | 1009.0 |
| 20260509230526 | 32 | 283 | 1.6 | 4.8 | 0.00 | 0.10 | 0.10 | 40 | 1009.0 |
| 20260509225523 | 32 | 314 | 3.2 | 4.8 | 0.00 | 0.10 | 0.10 | 42 | 1009.0 |
| 20260509224520 | 33 | 338 | 4.8 | 8.0 | 0.00 | 0.10 | 0.10 | 38 | 1009.0 |
| 20260509223528 | 33 | 347 | 6.4 | 6.4 | 0.00 | 0.10 | 0.10 | 39 | 1009.2 |
| 20260509222528 | 32 | 141 | 3.2 | 4.8 | 0.00 | 0.10 | 0.10 | 41 | 1009.2 |
| 20260509221529 | 33 | 315 | 3.2 | 8.0 | 0.00 | 0.10 | 0.10 | 38 | 1009.2 |
| 20260509220526 | 32 | 309 | 4.8 | 6.4 | 0.00 | 0.10 | 0.10 | 42 | 1009.2 |
| 20260509215522 | 33 | 356 | 6.4 | 8.0 | 0.00 | 0.10 | 0.10 | 40 | 1009.3 |
| 20260509214540 | 33 | 335 | 8.0 | 11.3 | 0.00 | 0.10 | 0.10 | 40 | 1009.4 |
| 20260509213520 | 33 | 285 | 6.4 | 12.9 | 0.00 | 0.10 | 0.10 | 40 | 1009.5 |
| 20260509212522 | 33 | 291 | 4.8 | 9.7 | 0.00 | 0.10 | 0.10 | 40 | 1009.5 |
| 20260509211523 | 33 | 209 | 4.8 | 9.7 | 0.00 | 0.10 | 0.10 | 40 | 1009.7 |
| 20260509205517 | 32 | 303 | 6.4 | 11.3 | 0.00 | 0.10 | 0.10 | 42 | 1010.0 |
| 20260509204526 | 32 | 306 | 3.2 | 8.0 | 0.00 | 0.10 | 0.10 | 45 | 1010.3 |
| 20260509203520 | 31 | 204 | 3.2 | 6.4 | 0.00 | 0.10 | 0.10 | 44 | 1010.4 |
| 20260509202523 | 33 | 281 | 3.2 | 3.2 | 0.00 | 0.10 | 0.10 | 42 | 1010.4 |
| 20260509202018 | 33 | 261 | 6.4 | 9.7 | 0.05 | 0.10 | 0.10 | 39 | 1010.4 |
| 20260509201020 | 33 | 264 | 4.8 | 8.0 | 0.05 | 0.10 | 0.10 | 41 | 1010.5 |
| 20260509200042 | 32 | 306 | 6.4 | 11.3 | 0.10 | 0.10 | 0.10 | 43 | 1010.5 |
| 20260509195028 | 33 | 298 | 9.7 | 14.5 | 0.10 | 0.10 | 0.10 | 42 | 1010.6 |
| 20260509194103 | 33 | 265 | 4.8 | 8.0 | 0.10 | 0.10 | 0.10 | 42 | 1010.8 |
| 20260509193119 | 32 | 197 | 4.8 | 8.0 | 0.10 | 0.10 | 0.10 | 43 | 1010.8 |
| 20260509192024 | 27 | 180 | 1.6 | 11.3 | 0.05 | 0.05 | 0.05 | 54 | 1011.0 |
| 20260509191026 | 24 | 0.0 | 0.0 | 0.05 | 0.05 | 0.05 | 55 | 1011.2 | |
| 20260509190123 | 33 | 4.8 | 4.8 | 0.00 | 0.00 | 0.00 | 56 | 1011.4 | |
| 20260509185136 | 33 | 201 | 8.0 | 12.9 | 0.00 | 0.00 | 0.00 | 53 | 1011.5 |
| 20260509184028 | 33 | 281 | 8.0 | 12.9 | 0.00 | 0.00 | 0.00 | 53 | 1011.7 |
| 20260509183024 | 33 | 224 | 4.8 | 8.0 | 0.00 | 0.00 | 0.00 | 54 | 1011.9 |
| 20260509182032 | 32 | 227 | 6.4 | 11.3 | 0.00 | 0.00 | 0.00 | 59 | 1012.1 |
| 20260509181053 | 32 | 287 | 6.4 | 8.0 | 0.00 | 0.00 | 0.00 | 59 | 1012.1 |
| 20260509180033 | 31 | 28 | 1.6 | 6.4 | 0.00 | 0.00 | 0.00 | 59 | 1012.3 |
| 20260509175139 | 31 | 113 | 6.4 | 9.7 | 0.00 | 0.00 | 0.00 | 61 | 1012.4 |
| 20260509174023 | 31 | 244 | 4.8 | 9.7 | 0.00 | 0.00 | 0.00 | 63 | 1012.5 |
| 20260509173019 | 31 | 175 | 4.8 | 9.7 | 0.00 | 0.00 | 0.00 | 62 | 1012.6 |
| 20260509172050 | 31 | 178 | 6.4 | 9.7 | 0.00 | 0.00 | 0.00 | 64 | 1012.5 |
| 20260509171032 | 31 | 136 | 6.4 | 9.7 | 0.00 | 0.00 | 0.00 | 63 | 1012.7 |
| 20260509170025 | 31 | 187 | 4.8 | 9.7 | 0.00 | 0.00 | 0.00 | 65 | 1012.8 |
| 20260509165042 | 30 | 147 | 4.8 | 11.3 | 0.00 | 0.00 | 0.00 | 67 | 1012.7 |
| 20260509164034 | 29 | 194 | 6.4 | 11.3 | 0.00 | 0.00 | 0.00 | 70 | 1012.6 |
| 20260509163032 | 30 | 166 | 6.4 | 12.9 | 0.00 | 0.00 | 0.00 | 70 | 1012.6 |
| 20260509162029 | 29 | 164 | 8.0 | 9.7 | 0.00 | 0.00 | 0.00 | 73 | 1012.7 |
| 20260509161027 | 27 | 177 | 8.0 | 11.3 | 0.00 | 0.00 | 0.00 | 77 | 1012.6 |
| 20260509160028 | 28 | 191 | 8.0 | 12.9 | 0.00 | 0.00 | 0.00 | 74 | 1012.7 |
| 20260509155021 | 29 | 170 | 9.7 | 16.1 | 0.00 | 0.00 | 0.00 | 73 | 1012.6 |
| 20260509154057 | 28 | 186 | 8.0 | 9.7 | 0.00 | 0.00 | 0.00 | 73 | 1012.6 |
| 20260509153049 | 28 | 143 | 8.0 | 14.5 | 0.00 | 0.00 | 0.00 | 74 | 1012.5 |
| 20260509152025 | 27 | 202 | 6.4 | 11.3 | 0.00 | 0.00 | 0.00 | 77 | 1012.6 |
| 20260509151030 | 27 | 140 | 6.4 | 9.7 | 0.00 | 0.00 | 0.00 | 78 | 1012.5 |
| 20260509150032 | 27 | 154 | 6.4 | 9.7 | 0.00 | 0.00 | 0.00 | 78 | 1012.4 |
| 20260509145032 | 27 | 184 | 6.4 | 8.0 | 0.00 | 0.00 | 0.00 | 81 | 1012.4 |
| 20260509144135 | 27 | 184 | 9.7 | 11.3 | 0.00 | 0.00 | 0.00 | 78 | 1012.3 |
| 20260509143113 | 27 | 162 | 6.4 | 9.7 | 0.00 | 0.00 | 0.00 | 78 | 1012.1 |
| 20260509142032 | 27 | 146 | 8.0 | 12.9 | 0.00 | 0.00 | 0.00 | 79 | 1011.6 |
| 20260509141026 | 26 | 180 | 6.4 | 11.3 | 0.00 | 0.00 | 0.00 | 81 | 1011.4 |
| 20260509140020 | 26 | 160 | 6.4 | 11.3 | 0.00 | 0.00 | 0.00 | 81 | 1011.4 |
| 20260509135055 | 26 | 181 | 8.0 | 12.9 | 0.00 | 0.00 | 0.00 | 82 | 1011.5 |
| 20260509134028 | 25 | 174 | 6.4 | 9.7 | 0.00 | 0.00 | 0.00 | 84 | 1011.6 |
| 20260509133023 | 25 | 182 | 6.4 | 8.0 | 0.00 | 0.00 | 0.00 | 88 | 1011.6 |
| 20260509132033 | 24 | 185 | 6.4 | 9.7 | 0.00 | 0.00 | 0.00 | 90 | 1011.9 |
| 20260509131027 | 23 | 161 | 4.8 | 8.0 | 0.00 | 0.00 | 0.00 | 93 | 1011.9 |
| 20260509130028 | 22 | 175 | 4.8 | 6.4 | 0.00 | 0.00 | 0.00 | 96 | 1012.1 |
| 20260509125024 | 22 | 186 | 3.2 | 6.4 | 0.00 | 0.00 | 0.00 | 99 | 1012.1 |
| 20260509124042 | 21 | 0.0 | 0.0 | 0.00 | 0.00 | 0.00 | 99 | 1012.1 | |
| 20260509123109 | 21 | 0.0 | 0.0 | 0.00 | 0.00 | 0.00 | 99 | 1012.1 | |
| 20260509122044 | 21 | 0.0 | 0.0 | 0.00 | 0.00 | 0.00 | 99 | 1012.3 | |
| 20260509121025 | 21 | 0.0 | 0.0 | 0.00 | 0.00 | 0.00 | 99 | 1012.4 | |
| 20260509120206 | 21 | 0.0 | 0.0 | 0.00 | 0.00 | 0.00 | 99 | 1012.5 | |
| 20260509115017 | 20 | 0.0 | 0.0 | 0.00 | 0.00 | 0.00 | 99 | 1012.7 | |
| 20260509114058 | 20 | 203 | 0.0 | 3.2 | 0.00 | 0.00 | 0.00 | 99 | 1012.8 |
| 20260509113025 | 21 | 127 | 3.2 | 6.4 | 0.00 | 0.00 | 0.00 | 99 | 1012.8 |
| 20260509112104 | 21 | 0.0 | 0.0 | 0.00 | 0.00 | 0.00 | 99 | 1013.1 | |
| 20260509111024 | 21 | 0.0 | 0.0 | 0.00 | 0.00 | 0.00 | 99 | 1013.4 | |
| 20260509110042 | 21 | 0.0 | 0.0 | 0.00 | 0.00 | 0.00 | 99 | 1013.3 | |
| 20260509105047 | 21 | 14 | 4.8 | 6.4 | 0.00 | 0.00 | 0.00 | 99 | 1013.3 |
| 20260509104108 | 21 | 11 | 4.8 | 6.4 | 0.00 | 0.00 | 0.00 | 99 | 1013.3 |
| 20260509103021 | 21 | 346 | 3.2 | 4.8 | 0.00 | 0.00 | 0.00 | 99 | 1013.3 |
| 20260509102033 | 21 | 203 | 1.6 | 3.2 | 0.00 | 0.00 | 0.00 | 99 | 1012.9 |
| 20260509101053 | 21 | 23 | 0.0 | 4.8 | 0.00 | 0.00 | 0.00 | 99 | 1012.9 |
| 20260509100122 | 21 | 3 | 3.2 | 4.8 | 0.00 | 0.00 | 0.00 | 99 | 1011.9 |
| 20260509095033 | 21 | 0.0 | 1.6 | 0.00 | 0.00 | 0.00 | 99 | 1011.8 | |
| 20260509094031 | 20 | 304 | 3.2 | 4.8 | 0.00 | 0.00 | 0.00 | 99 | 1011.7 |
| 20260509093029 | 20 | 0.0 | 0.0 | 0.00 | 0.00 | 0.00 | 99 | 1011.6 | |
| 20260509092029 | 20 | 0.0 | 0.0 | 0.00 | 0.00 | 0.00 | 99 | 1011.6 | |
| 20260509091024 | 20 | 215 | 1.6 | 3.2 | 0.00 | 0.00 | 0.00 | 99 | 1011.4 |
| 20260509090035 | 20 | 0.0 | 0.0 | 0.00 | 0.00 | 0.00 | 99 | 1011.8 | |
| 20260509085050 | 20 | 0.0 | 0.0 | 0.00 | 0.00 | 0.00 | 99 | 1011.9 | |
| 20260509084058 | 20 | 0.0 | 0.0 | 0.00 | 0.00 | 0.00 | 99 | 1011.9 | |
| 20260509083112 | 20 | 0.0 | 3.2 | 0.00 | 0.00 | 0.00 | 99 | 1012.1 | |
| 20260509082046 | 20 | 2 | 1.6 | 3.2 | 0.00 | 0.00 | 0.00 | 99 | 1012.1 |
| 20260509081019 | 20 | 0.0 | 0.0 | 0.00 | 0.00 | 0.00 | 99 | 1012.1 | |
| 20260509080031 | 20 | 0.0 | 0.0 | 0.00 | 0.00 | 0.00 | 99 | 1012.3 | |
| 20260509075028 | 20 | 0.0 | 0.0 | 0.00 | 0.00 | 0.00 | 99 | 1012.3 | |
| 20260509074033 | 20 | 0.0 | 0.0 | 0.00 | 0.00 | 0.00 | 99 | 1012.3 | |
| 20260509073022 | 20 | 74 | 0.0 | 3.2 | 0.00 | 0.00 | 0.00 | 99 | 1012.3 |
| 20260509072055 | 20 | 23 | 0.0 | 1.6 | 0.00 | 0.00 | 0.00 | 99 | 1012.4 |
| 20260509071028 | 20 | 23 | 1.6 | 4.8 | 0.00 | 0.00 | 0.00 | 99 | 1012.4 |
| 20260509070045 | 20 | 23 | 3.2 | 4.8 | 0.00 | 0.00 | 0.00 | 99 | 1012.4 |
| 20260509065026 | 20 | 14 | 1.6 | 6.4 | 0.00 | 0.00 | 0.00 | 99 | 1012.1 |
| 20260509064022 | 20 | 0.0 | 0.0 | 0.00 | 0.00 | 0.00 | 99 | 1011.9 | |
| 20260509063044 | 20 | 0.0 | 0.0 | 0.00 | 0.00 | 0.00 | 99 | 1011.9 | |
| 20260509062105 | 20 | 0.0 | 0.0 | 0.00 | 0.00 | 0.00 | 99 | 1012.1 | |
| 20260509061026 | 20 | 0.0 | 0.0 | 0.00 | 0.00 | 0.00 | 99 | 1012.1 | |
| 20260509060027 | 20 | 0.0 | 0.0 | 0.00 | 0.00 | 0.00 | 99 | 1011.6 | |
| 20260509055108 | 20 | 0.0 | 0.0 | 0.00 | 0.00 | 0.00 | 98 | 1011.6 | |
| 20260509054104 | 20 | 0.0 | 0.0 | 0.00 | 0.00 | 0.00 | 98 | 1011.6 | |
| 20260509053020 | 20 | 0.0 | 0.0 | 0.00 | 0.00 | 0.00 | 98 | 1011.6 | |
| 20260509052054 | 20 | 192 | 1.6 | 6.4 | 0.00 | 0.00 | 0.00 | 98 | 1011.4 |
| 20260509051017 | 21 | 162 | 6.4 | 9.7 | 0.00 | 0.00 | 0.00 | 98 | 1011.0 |
| 20260509050030 | 20 | 186 | 1.6 | 4.8 | 0.00 | 0.00 | 0.00 | 97 | 1010.5 |
| 20260509045127 | 20 | 0.0 | 0.0 | 0.00 | 0.00 | 0.00 | 97 | 1010.6 | |
| 20260509044028 | 20 | 146 | 3.2 | 6.4 | 0.00 | 0.00 | 0.00 | 97 | 1010.7 |
| 20260509043027 | 20 | 23 | 0.0 | 4.8 | 0.00 | 0.00 | 0.00 | 97 | 1010.9 |
| 20260509042045 | 20 | 283 | 1.6 | 4.8 | 0.00 | 0.00 | 0.00 | 95 | 1011.4 |
| 20260509041105 | 21 | 337 | 3.2 | 4.8 | 0.00 | 0.00 | 0.00 | 95 | 1011.2 |
| 20260509040027 | 21 | 186 | 4.8 | 8.0 | 0.00 | 0.00 | 0.00 | 94 | 1011.2 |
| 20260509035048 | 21 | 165 | 3.2 | 6.4 | 0.00 | 0.00 | 0.00 | 94 | 1011.1 |
| 20260509034027 | 21 | 153 | 4.8 | 9.7 | 0.00 | 0.00 | 0.00 | 94 | 1011.1 |
| 20260509033024 | 21 | 154 | 3.2 | 8.0 | 0.00 | 0.00 | 0.00 | 93 | 1011.1 |
| 20260509032019 | 21 | 126 | 3.2 | 4.8 | 0.00 | 0.00 | 0.00 | 93 | 1011.1 |
| 20260509031052 | 21 | 140 | 4.8 | 8.0 | 0.00 | 0.00 | 0.00 | 93 | 1011.0 |
| 20260509030027 | 22 | 131 | 4.8 | 6.4 | 0.00 | 0.00 | 0.00 | 92 | 1011.0 |
| 20260509025028 | 22 | 135 | 3.2 | 4.8 | 0.00 | 0.00 | 0.00 | 92 | 1010.9 |
| 20260509024048 | 22 | 193 | 1.6 | 8.0 | 0.00 | 0.00 | 0.00 | 92 | 1010.8 |
| 20260509023051 | 22 | 0.0 | 0.0 | 0.00 | 0.00 | 0.00 | 91 | 1010.7 |